Rincon, PR (00677)

5:30 PM AST on February 06, 2016 (GMT -0400)
Barrio Puntas | | Change Station
CLOSE
Current Station
Personal Weather Station
Location: Rincon, PR
Elevation: 0 ft
Nearby Weather Stations

Elev 0 ft 18.37 °N, 67.25 °W | Updated 0 second ago

Scattered Clouds
Scattered Clouds
81.0 °F
Feels Like 79 °F
N
2.3
Wind Variable Wind from East
Gusts 2.3 mph

Today
High -- | Low -- °F
--% Chance of Precip.
Yesterday
High -- | Low -- °F
Precip. -- in
Pressure 30.00 in
Visibility 10.0 miles
Clouds Scattered Clouds 4000 ft
Heat Index 79 °F
Dew Point -7 °F
Humidity 3%
Rainfall 0.01 in
Snow Depth Not available.
7:00 AM 6:25 PM
Waning Crescent, 4% visible
METAR TJMZ 061950Z 18007KT 10SM SCT040 31/17 A3000
Pressure 30.00 in
Visibility 10.0 miles
Clouds Scattered Clouds 4000 ft
Heat Index 79 °F
Dew Point -7 °F
Humidity 3%
Rainfall 0.01 in
Snow Depth Not available.
7:00 AM 6:25 PM
Waning Crescent, 4% visible
METAR TJMZ 061950Z 18007KT 10SM SCT040 31/17 A3000

10-Day Weather Forecast

Almanac

Astronomy

Feb. 06, 2016 Rise Set
Actual Time
Civil Twilight
Nautical Twilight
Astronomical Twilight
Moon
Length of Visible Light
Length of Day
Tomorrow will be .
, % of the Moon is Illuminated

Today's Extremes

State Highs State Lows

Community

WunderPhotos

Upload Photos

1,891,050 photos uploaded!

WunderBlog® & News

Nearby

Air Quality

  Air Quality AQ Index Pollutant
Not available.

Snow Depth

Station Depth Elevation

Earthquake Activity

City Distance Mag. Time & Date
Minimum magnitude displayed is 2.5.

Coastal Water Temperatures

Place Temperature

Stations

Nearby Weather Stations

Station Location Temp. Windchill Dew Point Humidity Wind Precip. Elev Updated Type
                   

Watches & Warnings

There are currently no watches in effect.